Rechercher aéroport 
image banner adimage banner adimage banner ad
image banner ad

CA18 - Sunrise Dusters

Situé à Robbins, United States

ICAO - CA18, IATA -

Données fournies par Airmate  

Information générale

Coordonnées: N38°52'20" W121°42'36"
Élévation : 24 feet MSL.
Variation magnétique : 16° East
Voir autres Aéroports à California

Données opérationnelles

Special qualification required
Heure actuelle UTC:
Heure actuelle locale:
Météo à : KSMF - Sacramento Intl ( 22 km )
METAR: KSMF 251553Z VRB04KT 10SM BKN190 20/11 A2990 RMK AO2 SLP124 T02000111 $
TAF: KSMF 251120Z 2512/2612 17008KT P6SM SCT200 FM260200 18012G20KT P6SM FEW150 BKN250
Voir NOTAMs / SUP AIP / TFR affectant cet aéroport [VIEW]
Fréquences de communication: [VIEW]

Pistes:

Identifiant RWYQFULongueur (ft)Largeur (ft)SurfaceLDA (ft)
14310035OTHER
32310035OTHER

Coordonnées de l'aéroport

Adresse: Robbins United States

Vue satellite de CA18